Terminal Aerodrome Forecast
Issued by NWS

Current Version | Previous Version | Text Only | Print | Product List | Glossary On
Versions: 1 2 3 4 5 6 7 8 9 10 11 12 13
000
FTUS41 KCAR 232326 AAA
TAFHUL
TAF AMD
KHUL 232326Z 2323/2424 20009KT P6SM SCT050 BKN100
     FM240300 22010KT P6SM SCT015 OVC050
     FM240500 24006KT 2SM BR OVC015
     FM241200 24003KT P6SM SCT015 BKN150
     FM241500 26004KT P6SM BKN120
     FM242100 VRB03KT 3SM -RA OVC015=

USA.gov is the U.S. government's official web portal to all federal, state and local government web resources and services.